sensor_id;sensor_type;location;lat;lon;timestamp;P1;durP1;ratioP1;P2;durP2;ratioP2
21758;SDS011;11041;50.854;20.580;2023-02-28T00:01:30;31.73;;;15.23;;
21758;SDS011;11041;50.854;20.580;2023-02-28T00:03:58;32.13;;;14.80;;
21758;SDS011;11041;50.854;20.580;2023-02-28T00:06:25;27.73;;;14.30;;
21758;SDS011;11041;50.854;20.580;2023-02-28T00:08:52;27.42;;;13.73;;
21758;SDS011;11041;50.854;20.580;2023-02-28T00:11:20;24.23;;;13.23;;
21758;SDS011;11041;50.854;20.580;2023-02-28T00:13:48;27.27;;;13.95;;
21758;SDS011;11041;50.854;20.580;2023-02-28T00:16:18;29.38;;;14.35;;
21758;SDS011;11041;50.854;20.580;2023-02-28T00:18:47;29.70;;;14.63;;
21758;SDS011;11041;50.854;20.580;2023-02-28T00:21:15;26.73;;;13.65;;
21758;SDS011;11041;50.854;20.580;2023-02-28T00:23:43;26.23;;;13.70;;
21758;SDS011;11041;50.854;20.580;2023-02-28T00:26:11;23.23;;;13.20;;
21758;SDS011;11041;50.854;20.580;2023-02-28T00:28:38;25.27;;;13.20;;
21758;SDS011;11041;50.854;20.580;2023-02-28T00:31:04;26.98;;;13.88;;
21758;SDS011;11041;50.854;20.580;2023-02-28T00:33:31;23.73;;;14.00;;
21758;SDS011;11041;50.854;20.580;2023-02-28T00:36:02;28.50;;;14.07;;
21758;SDS011;11041;50.854;20.580;2023-02-28T00:38:36;29.40;;;14.20;;
21758;SDS011;11041;50.854;20.580;2023-02-28T00:41:05;26.55;;;14.45;;
21758;SDS011;11041;50.854;20.580;2023-02-28T00:43:33;28.20;;;13.40;;
21758;SDS011;11041;50.854;20.580;2023-02-28T00:46:02;29.83;;;14.10;;
21758;SDS011;11041;50.854;20.580;2023-02-28T00:48:30;28.93;;;14.70;;
21758;SDS011;11041;50.854;20.580;2023-02-28T00:50:57;27.23;;;14.33;;
21758;SDS011;11041;50.854;20.580;2023-02-28T00:53:23;33.13;;;16.70;;
21758;SDS011;11041;50.854;20.580;2023-02-28T00:55:50;31.33;;;15.63;;
21758;SDS011;11041;50.854;20.580;2023-02-28T00:58:17;24.27;;;13.70;;
21758;SDS011;11041;50.854;20.580;2023-02-28T01:00:43;28.60;;;14.90;;
21758;SDS011;11041;50.854;20.580;2023-02-28T01:03:15;31.33;;;16.50;;
21758;SDS011;11041;50.854;20.580;2023-02-28T01:05:43;29.87;;;15.00;;
21758;SDS011;11041;50.854;20.580;2023-02-28T01:08:10;31.10;;;14.77;;
21758;SDS011;11041;50.854;20.580;2023-02-28T01:10:36;29.67;;;14.93;;
21758;SDS011;11041;50.854;20.580;2023-02-28T01:13:04;26.90;;;14.40;;
21758;SDS011;11041;50.854;20.580;2023-02-28T01:15:31;31.27;;;15.27;;
21758;SDS011;11041;50.854;20.580;2023-02-28T01:17:58;32.80;;;15.37;;
21758;SDS011;11041;50.854;20.580;2023-02-28T01:20:24;25.73;;;14.93;;
21758;SDS011;11041;50.854;20.580;2023-02-28T01:22:51;29.27;;;14.93;;
21758;SDS011;11041;50.854;20.580;2023-02-28T01:25:17;30.10;;;14.43;;
21758;SDS011;11041;50.854;20.580;2023-02-28T01:27:44;38.22;;;16.77;;
21758;SDS011;11041;50.854;20.580;2023-02-28T01:30:10;33.07;;;15.43;;
21758;SDS011;11041;50.854;20.580;2023-02-28T01:32:37;32.03;;;15.67;;
21758;SDS011;11041;50.854;20.580;2023-02-28T01:35:04;28.47;;;15.23;;
21758;SDS011;11041;50.854;20.580;2023-02-28T01:37:31;30.73;;;15.57;;
21758;SDS011;11041;50.854;20.580;2023-02-28T01:39:57;33.67;;;14.88;;
21758;SDS011;11041;50.854;20.580;2023-02-28T01:42:24;34.33;;;16.70;;
21758;SDS011;11041;50.854;20.580;2023-02-28T01:45:04;32.47;;;16.03;;
21758;SDS011;11041;50.854;20.580;2023-02-28T01:47:52;34.33;;;16.17;;
21758;SDS011;11041;50.854;20.580;2023-02-28T01:50:26;31.77;;;16.13;;
21758;SDS011;11041;50.854;20.580;2023-02-28T01:53:01;30.87;;;16.70;;
21758;SDS011;11041;50.854;20.580;2023-02-28T01:55:35;32.27;;;16.53;;
21758;SDS011;11041;50.854;20.580;2023-02-28T01:58:04;35.00;;;16.93;;
21758;SDS011;11041;50.854;20.580;2023-02-28T02:00:34;30.33;;;16.40;;
21758;SDS011;11041;50.854;20.580;2023-02-28T02:03:11;33.67;;;15.73;;
21758;SDS011;11041;50.854;20.580;2023-02-28T02:05:44;29.33;;;15.27;;
21758;SDS011;11041;50.854;20.580;2023-02-28T02:08:15;31.03;;;16.30;;
21758;SDS011;11041;50.854;20.580;2023-02-28T02:11:02;30.40;;;15.63;;
21758;SDS011;11041;50.854;20.580;2023-02-28T02:25:25;27.70;;;15.17;;
21758;SDS011;11041;50.854;20.580;2023-02-28T02:31:54;29.83;;;14.53;;
21758;SDS011;11041;50.854;20.580;2023-02-28T02:41:23;33.17;;;14.67;;
21758;SDS011;11041;50.854;20.580;2023-02-28T02:46:58;28.70;;;15.20;;
21758;SDS011;11041;50.854;20.580;2023-02-28T02:49:36;26.23;;;13.50;;
21758;SDS011;11041;50.854;20.580;2023-02-28T02:52:08;26.67;;;14.67;;
21758;SDS011;11041;50.854;20.580;2023-02-28T02:54:42;24.07;;;14.23;;
21758;SDS011;11041;50.854;20.580;2023-02-28T02:57:15;29.97;;;15.17;;
21758;SDS011;11041;50.854;20.580;2023-02-28T02:59:53;34.17;;;16.60;;
21758;SDS011;11041;50.854;20.580;2023-02-28T03:02:24;40.87;;;20.63;;
21758;SDS011;11041;50.854;20.580;2023-02-28T03:05:00;37.77;;;19.57;;
21758;SDS011;11041;50.854;20.580;2023-02-28T03:07:32;35.80;;;18.57;;
21758;SDS011;11041;50.854;20.580;2023-02-28T03:09:58;29.87;;;16.47;;
21758;SDS011;11041;50.854;20.580;2023-02-28T03:12:32;31.70;;;16.13;;
21758;SDS011;11041;50.854;20.580;2023-02-28T03:15:18;38.50;;;18.40;;
21758;SDS011;11041;50.854;20.580;2023-02-28T03:18:01;33.03;;;18.27;;
21758;SDS011;11041;50.854;20.580;2023-02-28T03:21:00;37.53;;;18.20;;
21758;SDS011;11041;50.854;20.580;2023-02-28T03:24:03;30.07;;;17.17;;
21758;SDS011;11041;50.854;20.580;2023-02-28T03:26:39;31.13;;;17.37;;
21758;SDS011;11041;50.854;20.580;2023-02-28T03:29:20;32.50;;;17.63;;
21758;SDS011;11041;50.854;20.580;2023-02-28T03:32:45;31.77;;;16.67;;
21758;SDS011;11041;50.854;20.580;2023-02-28T03:35:43;32.30;;;16.23;;
21758;SDS011;11041;50.854;20.580;2023-02-28T03:38:21;26.70;;;15.07;;
21758;SDS011;11041;50.854;20.580;2023-02-28T03:41:12;32.90;;;16.23;;
21758;SDS011;11041;50.854;20.580;2023-02-28T03:43:55;29.33;;;17.50;;
21758;SDS011;11041;50.854;20.580;2023-02-28T03:46:29;30.27;;;16.43;;
21758;SDS011;11041;50.854;20.580;2023-02-28T03:49:04;27.17;;;15.50;;
21758;SDS011;11041;50.854;20.580;2023-02-28T03:51:56;28.70;;;16.43;;
21758;SDS011;11041;50.854;20.580;2023-02-28T03:54:30;29.90;;;16.03;;
21758;SDS011;11041;50.854;20.580;2023-02-28T03:57:04;33.67;;;17.13;;
21758;SDS011;11041;50.854;20.580;2023-02-28T04:00:12;32.50;;;16.97;;
21758;SDS011;11041;50.854;20.580;2023-02-28T04:02:54;29.00;;;16.50;;
21758;SDS011;11041;50.854;20.580;2023-02-28T04:05:21;27.47;;;15.20;;
21758;SDS011;11041;50.854;20.580;2023-02-28T04:07:49;27.67;;;15.20;;
21758;SDS011;11041;50.854;20.580;2023-02-28T04:10:16;24.17;;;15.50;;
21758;SDS011;11041;50.854;20.580;2023-02-28T04:12:43;26.13;;;15.83;;
21758;SDS011;11041;50.854;20.580;2023-02-28T04:15:09;34.77;;;19.00;;
21758;SDS011;11041;50.854;20.580;2023-02-28T04:17:36;27.53;;;16.83;;
21758;SDS011;11041;50.854;20.580;2023-02-28T04:20:03;35.20;;;21.53;;
21758;SDS011;11041;50.854;20.580;2023-02-28T04:22:35;47.17;;;24.57;;
21758;SDS011;11041;50.854;20.580;2023-02-28T04:25:03;31.23;;;17.57;;
21758;SDS011;11041;50.854;20.580;2023-02-28T04:27:31;27.40;;;15.70;;
21758;SDS011;11041;50.854;20.580;2023-02-28T04:29:57;33.60;;;16.70;;
21758;SDS011;11041;50.854;20.580;2023-02-28T04:32:24;29.37;;;16.10;;
21758;SDS011;11041;50.854;20.580;2023-02-28T04:34:50;33.07;;;16.60;;
21758;SDS011;11041;50.854;20.580;2023-02-28T04:37:17;29.47;;;17.27;;
21758;SDS011;11041;50.854;20.580;2023-02-28T04:39:43;35.70;;;19.07;;
21758;SDS011;11041;50.854;20.580;2023-02-28T04:42:10;37.93;;;19.57;;
21758;SDS011;11041;50.854;20.580;2023-02-28T04:44:38;34.67;;;18.87;;
21758;SDS011;11041;50.854;20.580;2023-02-28T04:47:05;34.70;;;18.17;;
21758;SDS011;11041;50.854;20.580;2023-02-28T04:49:32;30.67;;;15.60;;
21758;SDS011;11041;50.854;20.580;2023-02-28T04:51:58;33.40;;;18.43;;
21758;SDS011;11041;50.854;20.580;2023-02-28T04:54:25;31.43;;;17.63;;
21758;SDS011;11041;50.854;20.580;2023-02-28T04:56:51;33.90;;;17.17;;
21758;SDS011;11041;50.854;20.580;2023-02-28T04:59:18;31.13;;;16.93;;
21758;SDS011;11041;50.854;20.580;2023-02-28T05:01:48;30.37;;;15.77;;
21758;SDS011;11041;50.854;20.580;2023-02-28T05:04:15;27.07;;;16.83;;
21758;SDS011;11041;50.854;20.580;2023-02-28T05:06:42;28.33;;;16.33;;
21758;SDS011;11041;50.854;20.580;2023-02-28T05:09:09;32.80;;;16.40;;
21758;SDS011;11041;50.854;20.580;2023-02-28T05:11:38;28.97;;;16.67;;
21758;SDS011;11041;50.854;20.580;2023-02-28T05:14:10;35.83;;;17.43;;
21758;SDS011;11041;50.854;20.580;2023-02-28T05:16:39;36.43;;;18.73;;
21758;SDS011;11041;50.854;20.580;2023-02-28T05:19:06;35.33;;;17.83;;
21758;SDS011;11041;50.854;20.580;2023-02-28T05:21:36;33.53;;;18.53;;
21758;SDS011;11041;50.854;20.580;2023-02-28T05:24:14;32.73;;;17.57;;
21758;SDS011;11041;50.854;20.580;2023-02-28T05:26:41;35.33;;;18.67;;
21758;SDS011;11041;50.854;20.580;2023-02-28T05:29:09;35.77;;;19.17;;
21758;SDS011;11041;50.854;20.580;2023-02-28T05:31:36;33.67;;;18.70;;
21758;SDS011;11041;50.854;20.580;2023-02-28T05:34:04;33.77;;;18.27;;
21758;SDS011;11041;50.854;20.580;2023-02-28T05:36:31;39.23;;;19.23;;
21758;SDS011;11041;50.854;20.580;2023-02-28T05:38:58;33.33;;;18.40;;
21758;SDS011;11041;50.854;20.580;2023-02-28T05:41:25;34.53;;;19.47;;
21758;SDS011;11041;50.854;20.580;2023-02-28T05:43:51;31.50;;;16.57;;
21758;SDS011;11041;50.854;20.580;2023-02-28T05:46:18;31.80;;;17.30;;
21758;SDS011;11041;50.854;20.580;2023-02-28T05:48:46;32.63;;;17.17;;
21758;SDS011;11041;50.854;20.580;2023-02-28T05:51:13;33.70;;;17.17;;
21758;SDS011;11041;50.854;20.580;2023-02-28T05:53:40;33.13;;;17.73;;
21758;SDS011;11041;50.854;20.580;2023-02-28T05:56:07;35.43;;;18.73;;
21758;SDS011;11041;50.854;20.580;2023-02-28T05:58:34;32.97;;;18.37;;
21758;SDS011;11041;50.854;20.580;2023-02-28T06:01:00;35.37;;;18.83;;
21758;SDS011;11041;50.854;20.580;2023-02-28T06:03:50;32.87;;;17.00;;
21758;SDS011;11041;50.854;20.580;2023-02-28T06:06:17;27.60;;;16.90;;
21758;SDS011;11041;50.854;20.580;2023-02-28T06:08:43;32.27;;;18.33;;
21758;SDS011;11041;50.854;20.580;2023-02-28T06:11:11;37.27;;;18.30;;
21758;SDS011;11041;50.854;20.580;2023-02-28T06:13:38;37.30;;;19.13;;
21758;SDS011;11041;50.854;20.580;2023-02-28T06:16:04;36.67;;;20.80;;
21758;SDS011;11041;50.854;20.580;2023-02-28T06:18:31;37.37;;;20.93;;
21758;SDS011;11041;50.854;20.580;2023-02-28T06:20:58;34.97;;;20.60;;
21758;SDS011;11041;50.854;20.580;2023-02-28T06:23:25;38.60;;;19.87;;
21758;SDS011;11041;50.854;20.580;2023-02-28T06:25:51;36.23;;;21.33;;
21758;SDS011;11041;50.854;20.580;2023-02-28T06:28:18;46.00;;;24.40;;
21758;SDS011;11041;50.854;20.580;2023-02-28T06:30:45;46.47;;;26.87;;
21758;SDS011;11041;50.854;20.580;2023-02-28T06:33:12;44.37;;;25.30;;
21758;SDS011;11041;50.854;20.580;2023-02-28T06:35:38;49.57;;;26.10;;
21758;SDS011;11041;50.854;20.580;2023-02-28T06:38:05;53.40;;;26.13;;
21758;SDS011;11041;50.854;20.580;2023-02-28T06:40:31;42.73;;;24.57;;
21758;SDS011;11041;50.854;20.580;2023-02-28T06:43:00;39.20;;;22.87;;
21758;SDS011;11041;50.854;20.580;2023-02-28T06:45:27;43.07;;;22.93;;
21758;SDS011;11041;50.854;20.580;2023-02-28T06:47:54;36.80;;;22.27;;
21758;SDS011;11041;50.854;20.580;2023-02-28T06:50:21;44.47;;;24.73;;
21758;SDS011;11041;50.854;20.580;2023-02-28T06:52:47;45.50;;;25.03;;
21758;SDS011;11041;50.854;20.580;2023-02-28T06:55:14;57.57;;;29.53;;
21758;SDS011;11041;50.854;20.580;2023-02-28T06:57:40;52.03;;;27.90;;
21758;SDS011;11041;50.854;20.580;2023-02-28T07:00:07;71.30;;;31.47;;
21758;SDS011;11041;50.854;20.580;2023-02-28T07:02:36;74.43;;;31.07;;
21758;SDS011;11041;50.854;20.580;2023-02-28T07:05:06;45.73;;;21.77;;
21758;SDS011;11041;50.854;20.580;2023-02-28T07:07:33;40.80;;;20.40;;
21758;SDS011;11041;50.854;20.580;2023-02-28T07:10:01;44.27;;;19.80;;
21758;SDS011;11041;50.854;20.580;2023-02-28T07:12:28;45.67;;;20.63;;
21758;SDS011;11041;50.854;20.580;2023-02-28T07:14:54;40.40;;;18.87;;
21758;SDS011;11041;50.854;20.580;2023-02-28T07:17:21;37.03;;;19.03;;
21758;SDS011;11041;50.854;20.580;2023-02-28T07:19:48;40.43;;;20.33;;
21758;SDS011;11041;50.854;20.580;2023-02-28T07:22:15;32.07;;;16.70;;
21758;SDS011;11041;50.854;20.580;2023-02-28T07:24:42;36.17;;;16.67;;
21758;SDS011;11041;50.854;20.580;2023-02-28T07:27:09;29.98;;;16.05;;
21758;SDS011;11041;50.854;20.580;2023-02-28T07:29:35;22.33;;;13.60;;
21758;SDS011;11041;50.854;20.580;2023-02-28T07:32:04;27.67;;;14.30;;
21758;SDS011;11041;50.854;20.580;2023-02-28T07:34:30;21.23;;;12.13;;
21758;SDS011;11041;50.854;20.580;2023-02-28T07:36:57;23.48;;;14.13;;
21758;SDS011;11041;50.854;20.580;2023-02-28T07:39:23;20.60;;;12.77;;
21758;SDS011;11041;50.854;20.580;2023-02-28T07:41:50;20.58;;;11.95;;
21758;SDS011;11041;50.854;20.580;2023-02-28T07:44:16;22.47;;;13.17;;
21758;SDS011;11041;50.854;20.580;2023-02-28T07:46:43;23.63;;;13.25;;
21758;SDS011;11041;50.854;20.580;2023-02-28T07:49:10;24.48;;;12.85;;
21758;SDS011;11041;50.854;20.580;2023-02-28T07:51:37;21.60;;;12.73;;
21758;SDS011;11041;50.854;20.580;2023-02-28T07:54:03;21.70;;;11.93;;
21758;SDS011;11041;50.854;20.580;2023-02-28T07:56:30;22.92;;;12.88;;
21758;SDS011;11041;50.854;20.580;2023-02-28T07:58:56;16.85;;;11.13;;
21758;SDS011;11041;50.854;20.580;2023-02-28T08:01:23;28.60;;;13.00;;
21758;SDS011;11041;50.854;20.580;2023-02-28T08:03:49;24.83;;;13.48;;
21758;SDS011;11041;50.854;20.580;2023-02-28T08:06:17;17.50;;;11.57;;
21758;SDS011;11041;50.854;20.580;2023-02-28T08:08:47;17.55;;;10.98;;
21758;SDS011;11041;50.854;20.580;2023-02-28T08:11:14;16.55;;;10.40;;
21758;SDS011;11041;50.854;20.580;2023-02-28T08:13:43;12.07;;;8.10;;
21758;SDS011;11041;50.854;20.580;2023-02-28T08:16:11;15.57;;;8.93;;
21758;SDS011;11041;50.854;20.580;2023-02-28T08:18:51;13.88;;;9.48;;
21758;SDS011;11041;50.854;20.580;2023-02-28T08:21:18;14.02;;;8.32;;
21758;SDS011;11041;50.854;20.580;2023-02-28T08:23:50;16.63;;;10.30;;
21758;SDS011;11041;50.854;20.580;2023-02-28T08:26:18;16.45;;;8.73;;
21758;SDS011;11041;50.854;20.580;2023-02-28T08:28:45;10.85;;;7.95;;
21758;SDS011;11041;50.854;20.580;2023-02-28T08:31:13;13.93;;;9.43;;
21758;SDS011;11041;50.854;20.580;2023-02-28T08:33:42;13.07;;;8.50;;
21758;SDS011;11041;50.854;20.580;2023-02-28T08:36:10;10.60;;;7.53;;
21758;SDS011;11041;50.854;20.580;2023-02-28T08:38:37;14.88;;;9.05;;
21758;SDS011;11041;50.854;20.580;2023-02-28T08:41:05;17.02;;;8.68;;
21758;SDS011;11041;50.854;20.580;2023-02-28T08:43:36;14.73;;;9.38;;
21758;SDS011;11041;50.854;20.580;2023-02-28T08:46:03;14.32;;;9.88;;
21758;SDS011;11041;50.854;20.580;2023-02-28T08:48:31;14.80;;;9.77;;
21758;SDS011;11041;50.854;20.580;2023-02-28T08:51:04;14.45;;;8.80;;
21758;SDS011;11041;50.854;20.580;2023-02-28T08:53:39;18.93;;;9.87;;
21758;SDS011;11041;50.854;20.580;2023-02-28T08:56:07;14.18;;;9.20;;
21758;SDS011;11041;50.854;20.580;2023-02-28T08:58:37;14.00;;;8.93;;
21758;SDS011;11041;50.854;20.580;2023-02-28T09:01:09;19.67;;;10.85;;
21758;SDS011;11041;50.854;20.580;2023-02-28T09:03:44;16.77;;;11.13;;
21758;SDS011;11041;50.854;20.580;2023-02-28T09:06:13;17.48;;;11.30;;
21758;SDS011;11041;50.854;20.580;2023-02-28T09:08:42;17.25;;;9.85;;
21758;SDS011;11041;50.854;20.580;2023-02-28T09:11:09;16.75;;;10.68;;
21758;SDS011;11041;50.854;20.580;2023-02-28T09:13:36;22.27;;;11.77;;
21758;SDS011;11041;50.854;20.580;2023-02-28T09:16:05;16.75;;;10.25;;
21758;SDS011;11041;50.854;20.580;2023-02-28T09:18:36;19.20;;;11.50;;
21758;SDS011;11041;50.854;20.580;2023-02-28T09:21:05;20.05;;;12.27;;
21758;SDS011;11041;50.854;20.580;2023-02-28T09:23:40;17.17;;;11.10;;
21758;SDS011;11041;50.854;20.580;2023-02-28T09:26:11;20.95;;;12.20;;
21758;SDS011;11041;50.854;20.580;2023-02-28T09:28:48;16.00;;;11.25;;
21758;SDS011;11041;50.854;20.580;2023-02-28T09:31:17;18.17;;;12.70;;
21758;SDS011;11041;50.854;20.580;2023-02-28T09:33:50;19.33;;;10.75;;
21758;SDS011;11041;50.854;20.580;2023-02-28T09:36:19;19.98;;;12.63;;
21758;SDS011;11041;50.854;20.580;2023-02-28T09:38:47;17.20;;;10.73;;
21758;SDS011;11041;50.854;20.580;2023-02-28T09:41:23;15.93;;;10.77;;
21758;SDS011;11041;50.854;20.580;2023-02-28T09:44:02;17.55;;;10.95;;
21758;SDS011;11041;50.854;20.580;2023-02-28T09:49:12;14.57;;;10.18;;
21758;SDS011;11041;50.854;20.580;2023-02-28T09:51:51;15.65;;;9.95;;
21758;SDS011;11041;50.854;20.580;2023-02-28T09:54:34;16.60;;;10.82;;
21758;SDS011;11041;50.854;20.580;2023-02-28T10:00:02;22.17;;;12.38;;
21758;SDS011;11041;50.854;20.580;2023-02-28T10:09:31;18.13;;;11.15;;
21758;SDS011;11041;50.854;20.580;2023-02-28T10:11:41;14.57;;;9.25;;
21758;SDS011;11041;50.854;20.580;2023-02-28T10:14:12;16.50;;;9.82;;
21758;SDS011;11041;50.854;20.580;2023-02-28T10:16:55;16.42;;;10.27;;
21758;SDS011;11041;50.854;20.580;2023-02-28T10:19:43;16.15;;;11.00;;
21758;SDS011;11041;50.854;20.580;2023-02-28T10:25:57;15.35;;;9.52;;
21758;SDS011;11041;50.854;20.580;2023-02-28T10:28:35;16.58;;;10.20;;
21758;SDS011;11041;50.854;20.580;2023-02-28T10:31:02;19.25;;;10.25;;
21758;SDS011;11041;50.854;20.580;2023-02-28T10:33:32;15.10;;;9.93;;
21758;SDS011;11041;50.854;20.580;2023-02-28T10:36:04;15.77;;;10.45;;
21758;SDS011;11041;50.854;20.580;2023-02-28T10:38:37;17.88;;;10.95;;
21758;SDS011;11041;50.854;20.580;2023-02-28T10:41:07;18.48;;;11.40;;
21758;SDS011;11041;50.854;20.580;2023-02-28T10:46:49;18.90;;;10.20;;
21758;SDS011;11041;50.854;20.580;2023-02-28T10:49:20;30.25;;;17.38;;
21758;SDS011;11041;50.854;20.580;2023-02-28T10:51:56;22.98;;;12.20;;
21758;SDS011;11041;50.854;20.580;2023-02-28T10:54:30;20.55;;;12.27;;
21758;SDS011;11041;50.854;20.580;2023-02-28T10:57:20;18.77;;;12.15;;
21758;SDS011;11041;50.854;20.580;2023-02-28T11:00:06;17.63;;;10.93;;
21758;SDS011;11041;50.854;20.580;2023-02-28T11:02:47;16.98;;;11.02;;
21758;SDS011;11041;50.854;20.580;2023-02-28T11:05:28;19.65;;;10.95;;
21758;SDS011;11041;50.854;20.580;2023-02-28T11:10:45;16.67;;;11.63;;
21758;SDS011;11041;50.854;20.580;2023-02-28T11:13:21;19.70;;;11.70;;
21758;SDS011;11041;50.854;20.580;2023-02-28T11:16:00;19.35;;;11.00;;
21758;SDS011;11041;50.854;20.580;2023-02-28T11:19:06;21.02;;;11.20;;
21758;SDS011;11041;50.854;20.580;2023-02-28T11:21:27;17.80;;;11.00;;
21758;SDS011;11041;50.854;20.580;2023-02-28T11:26:56;22.88;;;13.82;;
21758;SDS011;11041;50.854;20.580;2023-02-28T11:29:24;21.15;;;11.57;;
21758;SDS011;11041;50.854;20.580;2023-02-28T11:32:01;39.35;;;21.00;;
21758;SDS011;11041;50.854;20.580;2023-02-28T11:34:42;16.75;;;11.60;;
21758;SDS011;11041;50.854;20.580;2023-02-28T11:37:19;19.02;;;11.93;;
21758;SDS011;11041;50.854;20.580;2023-02-28T11:39:47;20.10;;;12.52;;
21758;SDS011;11041;50.854;20.580;2023-02-28T11:42:21;18.77;;;13.38;;
21758;SDS011;11041;50.854;20.580;2023-02-28T11:45:29;19.17;;;11.80;;
21758;SDS011;11041;50.854;20.580;2023-02-28T11:48:21;30.88;;;17.27;;
21758;SDS011;11041;50.854;20.580;2023-02-28T12:06:13;18.45;;;12.38;;
21758;SDS011;11041;50.854;20.580;2023-02-28T12:11:47;25.75;;;14.25;;
21758;SDS011;11041;50.854;20.580;2023-02-28T12:14:55;25.17;;;13.70;;
21758;SDS011;11041;50.854;20.580;2023-02-28T12:24:12;21.52;;;13.23;;
21758;SDS011;11041;50.854;20.580;2023-02-28T12:26:52;17.67;;;12.32;;
21758;SDS011;11041;50.854;20.580;2023-02-28T12:29:30;18.27;;;12.52;;
21758;SDS011;11041;50.854;20.580;2023-02-28T12:35:14;22.25;;;13.95;;
21758;SDS011;11041;50.854;20.580;2023-02-28T12:37:55;25.23;;;15.05;;
21758;SDS011;11041;50.854;20.580;2023-02-28T12:44:07;18.77;;;12.35;;
21758;SDS011;11041;50.854;20.580;2023-02-28T12:47:01;19.05;;;13.00;;
21758;SDS011;11041;50.854;20.580;2023-02-28T12:49:38;20.95;;;12.20;;
21758;SDS011;11041;50.854;20.580;2023-02-28T12:52:17;22.15;;;13.77;;
21758;SDS011;11041;50.854;20.580;2023-02-28T12:55:13;20.30;;;12.13;;
21758;SDS011;11041;50.854;20.580;2023-02-28T13:10:14;16.50;;;12.00;;
21758;SDS011;11041;50.854;20.580;2023-02-28T13:12:47;19.17;;;12.20;;
21758;SDS011;11041;50.854;20.580;2023-02-28T13:15:18;25.75;;;13.23;;
21758;SDS011;11041;50.854;20.580;2023-02-28T13:17:51;19.63;;;12.20;;
21758;SDS011;11041;50.854;20.580;2023-02-28T13:34:41;22.23;;;14.13;;
21758;SDS011;11041;50.854;20.580;2023-02-28T13:45:23;40.88;;;18.80;;
21758;SDS011;11041;50.854;20.580;2023-02-28T13:50:35;20.85;;;12.70;;
21758;SDS011;11041;50.854;20.580;2023-02-28T14:05:30;20.10;;;12.70;;
21758;SDS011;11041;50.854;20.580;2023-02-28T14:08:04;20.80;;;12.65;;
21758;SDS011;11041;50.854;20.580;2023-02-28T14:10:46;22.60;;;13.77;;
21758;SDS011;11041;50.854;20.580;2023-02-28T14:16:23;18.73;;;11.40;;
21758;SDS011;11041;50.854;20.580;2023-02-28T14:19:09;16.55;;;10.88;;
21758;SDS011;11041;50.854;20.580;2023-02-28T14:22:26;17.83;;;10.80;;
21758;SDS011;11041;50.854;20.580;2023-02-28T14:28:19;15.40;;;10.68;;
21758;SDS011;11041;50.854;20.580;2023-02-28T14:31:15;19.85;;;12.20;;
21758;SDS011;11041;50.854;20.580;2023-02-28T14:37:16;17.02;;;10.32;;
21758;SDS011;11041;50.854;20.580;2023-02-28T14:39:52;22.27;;;13.63;;
21758;SDS011;11041;50.854;20.580;2023-02-28T14:42:27;20.77;;;11.57;;
21758;SDS011;11041;50.854;20.580;2023-02-28T14:45:03;33.67;;;16.05;;
21758;SDS011;11041;50.854;20.580;2023-02-28T14:47:31;18.35;;;11.27;;
21758;SDS011;11041;50.854;20.580;2023-02-28T14:50:02;18.88;;;12.10;;
21758;SDS011;11041;50.854;20.580;2023-02-28T14:52:31;39.42;;;21.60;;
21758;SDS011;11041;50.854;20.580;2023-02-28T14:55:03;21.48;;;12.23;;
21758;SDS011;11041;50.854;20.580;2023-02-28T15:00:30;15.35;;;10.30;;
21758;SDS011;11041;50.854;20.580;2023-02-28T15:03:20;15.10;;;9.98;;
21758;SDS011;11041;50.854;20.580;2023-02-28T15:05:58;18.00;;;10.23;;
21758;SDS011;11041;50.854;20.580;2023-02-28T15:08:40;21.05;;;10.85;;
21758;SDS011;11041;50.854;20.580;2023-02-28T15:11:13;28.73;;;11.93;;
21758;SDS011;11041;50.854;20.580;2023-02-28T15:13:53;15.93;;;10.73;;
21758;SDS011;11041;50.854;20.580;2023-02-28T15:16:22;28.80;;;16.75;;
21758;SDS011;11041;50.854;20.580;2023-02-28T15:19:02;29.15;;;15.65;;
21758;SDS011;11041;50.854;20.580;2023-02-28T15:21:52;19.48;;;11.55;;
21758;SDS011;11041;50.854;20.580;2023-02-28T15:24:47;25.90;;;15.32;;
21758;SDS011;11041;50.854;20.580;2023-02-28T15:27:25;20.52;;;13.10;;
21758;SDS011;11041;50.854;20.580;2023-02-28T15:29:59;21.40;;;11.27;;
21758;SDS011;11041;50.854;20.580;2023-02-28T15:32:33;19.20;;;11.23;;
21758;SDS011;11041;50.854;20.580;2023-02-28T15:37:54;18.95;;;10.32;;
21758;SDS011;11041;50.854;20.580;2023-02-28T15:40:57;17.58;;;10.00;;
21758;SDS011;11041;50.854;20.580;2023-02-28T15:45:56;16.73;;;10.63;;
21758;SDS011;11041;50.854;20.580;2023-02-28T15:48:43;17.52;;;10.52;;
21758;SDS011;11041;50.854;20.580;2023-02-28T15:51:40;14.00;;;8.95;;
21758;SDS011;11041;50.854;20.580;2023-02-28T15:54:07;17.20;;;9.70;;
21758;SDS011;11041;50.854;20.580;2023-02-28T15:56:53;15.52;;;8.88;;
21758;SDS011;11041;50.854;20.580;2023-02-28T15:59:27;13.73;;;8.95;;
21758;SDS011;11041;50.854;20.580;2023-02-28T16:02:03;16.80;;;9.25;;
21758;SDS011;11041;50.854;20.580;2023-02-28T16:07:34;16.65;;;9.75;;
21758;SDS011;11041;50.854;20.580;2023-02-28T16:10:08;16.02;;;9.23;;
21758;SDS011;11041;50.854;20.580;2023-02-28T16:12:40;17.40;;;9.93;;
21758;SDS011;11041;50.854;20.580;2023-02-28T16:15:08;16.52;;;9.88;;
21758;SDS011;11041;50.854;20.580;2023-02-28T16:17:48;20.85;;;9.85;;
21758;SDS011;11041;50.854;20.580;2023-02-28T16:20:19;18.50;;;10.18;;
21758;SDS011;11041;50.854;20.580;2023-02-28T16:22:50;16.45;;;9.80;;
21758;SDS011;11041;50.854;20.580;2023-02-28T16:25:18;18.17;;;10.27;;
21758;SDS011;11041;50.854;20.580;2023-02-28T16:27:50;17.65;;;10.30;;
21758;SDS011;11041;50.854;20.580;2023-02-28T16:30:20;17.38;;;10.20;;
21758;SDS011;11041;50.854;20.580;2023-02-28T16:32:50;18.70;;;11.55;;
21758;SDS011;11041;50.854;20.580;2023-02-28T16:35:18;19.50;;;11.13;;
21758;SDS011;11041;50.854;20.580;2023-02-28T16:37:46;19.88;;;10.70;;
21758;SDS011;11041;50.854;20.580;2023-02-28T16:40:18;19.40;;;11.20;;
21758;SDS011;11041;50.854;20.580;2023-02-28T16:42:49;17.25;;;10.27;;
21758;SDS011;11041;50.854;20.580;2023-02-28T16:45:23;18.75;;;10.73;;
21758;SDS011;11041;50.854;20.580;2023-02-28T16:47:52;18.42;;;9.63;;
21758;SDS011;11041;50.854;20.580;2023-02-28T16:50:22;19.85;;;11.18;;
21758;SDS011;11041;50.854;20.580;2023-02-28T16:52:51;19.40;;;10.75;;
21758;SDS011;11041;50.854;20.580;2023-02-28T16:55:20;18.02;;;10.35;;
21758;SDS011;11041;50.854;20.580;2023-02-28T16:57:50;18.40;;;10.13;;
21758;SDS011;11041;50.854;20.580;2023-02-28T17:00:21;17.83;;;10.27;;
21758;SDS011;11041;50.854;20.580;2023-02-28T17:02:50;20.88;;;10.45;;
21758;SDS011;11041;50.854;20.580;2023-02-28T17:05:17;16.48;;;10.38;;
21758;SDS011;11041;50.854;20.580;2023-02-28T17:07:44;16.23;;;10.10;;
21758;SDS011;11041;50.854;20.580;2023-02-28T17:10:13;19.85;;;9.52;;
21758;SDS011;11041;50.854;20.580;2023-02-28T17:12:45;18.23;;;10.97;;
21758;SDS011;11041;50.854;20.580;2023-02-28T17:15:12;21.33;;;10.90;;